sensor_id;sensor_type;location;lat;lon;timestamp;P1;durP1;ratioP1;P2;durP2;ratioP2
39524;SDS011;25203;50.754;6.978;2023-09-30T00:00:43;25.23;;;8.73;;
39524;SDS011;25203;50.754;6.978;2023-09-30T00:02:44;22.70;;;8.07;;
39524;SDS011;25203;50.754;6.978;2023-09-30T00:04:45;16.20;;;7.65;;
39524;SDS011;25203;50.754;6.978;2023-09-30T00:06:45;23.88;;;8.23;;
39524;SDS011;25203;50.754;6.978;2023-09-30T00:08:46;23.40;;;8.90;;
39524;SDS011;25203;50.754;6.978;2023-09-30T00:10:47;18.67;;;8.10;;
39524;SDS011;25203;50.754;6.978;2023-09-30T00:12:47;14.85;;;8.18;;
39524;SDS011;25203;50.754;6.978;2023-09-30T00:14:48;16.98;;;8.73;;
39524;SDS011;25203;50.754;6.978;2023-09-30T00:16:49;15.23;;;8.63;;
39524;SDS011;25203;50.754;6.978;2023-09-30T00:18:50;22.67;;;8.98;;
39524;SDS011;25203;50.754;6.978;2023-09-30T00:20:51;14.40;;;7.53;;
39524;SDS011;25203;50.754;6.978;2023-09-30T00:22:52;17.15;;;8.02;;
39524;SDS011;25203;50.754;6.978;2023-09-30T00:24:53;19.10;;;8.40;;
39524;SDS011;25203;50.754;6.978;2023-09-30T00:26:53;16.00;;;6.80;;
39524;SDS011;25203;50.754;6.978;2023-09-30T00:28:54;18.25;;;8.30;;
39524;SDS011;25203;50.754;6.978;2023-09-30T00:30:54;17.52;;;8.70;;
39524;SDS011;25203;50.754;6.978;2023-09-30T00:32:55;16.80;;;8.95;;
39524;SDS011;25203;50.754;6.978;2023-09-30T00:34:56;22.80;;;8.05;;
39524;SDS011;25203;50.754;6.978;2023-09-30T00:36:56;18.70;;;9.32;;
39524;SDS011;25203;50.754;6.978;2023-09-30T00:38:57;24.20;;;9.43;;
39524;SDS011;25203;50.754;6.978;2023-09-30T00:40:58;19.65;;;10.27;;
39524;SDS011;25203;50.754;6.978;2023-09-30T00:42:58;20.80;;;8.80;;
39524;SDS011;25203;50.754;6.978;2023-09-30T00:44:59;23.02;;;9.45;;
39524;SDS011;25203;50.754;6.978;2023-09-30T00:46:59;26.38;;;9.57;;
39524;SDS011;25203;50.754;6.978;2023-09-30T00:49:00;23.10;;;9.75;;
39524;SDS011;25203;50.754;6.978;2023-09-30T00:51:02;20.02;;;9.30;;
39524;SDS011;25203;50.754;6.978;2023-09-30T00:53:03;17.23;;;7.78;;
39524;SDS011;25203;50.754;6.978;2023-09-30T00:55:04;10.45;;;7.20;;
39524;SDS011;25203;50.754;6.978;2023-09-30T00:57:06;13.90;;;8.50;;
39524;SDS011;25203;50.754;6.978;2023-09-30T00:59:07;17.50;;;7.95;;
39524;SDS011;25203;50.754;6.978;2023-09-30T01:01:08;16.17;;;7.47;;
39524;SDS011;25203;50.754;6.978;2023-09-30T01:03:09;12.80;;;7.60;;
39524;SDS011;25203;50.754;6.978;2023-09-30T01:05:10;13.57;;;7.22;;
39524;SDS011;25203;50.754;6.978;2023-09-30T01:07:11;33.38;;;7.78;;
39524;SDS011;25203;50.754;6.978;2023-09-30T01:09:12;16.95;;;7.40;;
39524;SDS011;25203;50.754;6.978;2023-09-30T01:11:12;14.57;;;7.53;;
39524;SDS011;25203;50.754;6.978;2023-09-30T01:13:14;13.20;;;6.80;;
39524;SDS011;25203;50.754;6.978;2023-09-30T01:15:14;19.27;;;7.63;;
39524;SDS011;25203;50.754;6.978;2023-09-30T01:17:15;19.75;;;10.32;;
39524;SDS011;25203;50.754;6.978;2023-09-30T01:19:15;25.77;;;9.63;;
39524;SDS011;25203;50.754;6.978;2023-09-30T01:21:16;19.95;;;10.05;;
39524;SDS011;25203;50.754;6.978;2023-09-30T01:23:18;23.75;;;10.05;;
39524;SDS011;25203;50.754;6.978;2023-09-30T01:25:19;15.02;;;9.00;;
39524;SDS011;25203;50.754;6.978;2023-09-30T01:27:19;17.42;;;8.68;;
39524;SDS011;25203;50.754;6.978;2023-09-30T01:29:20;22.00;;;9.00;;
39524;SDS011;25203;50.754;6.978;2023-09-30T01:31:22;15.48;;;7.18;;
39524;SDS011;25203;50.754;6.978;2023-09-30T01:33:22;18.85;;;8.15;;
39524;SDS011;25203;50.754;6.978;2023-09-30T01:35:23;15.13;;;7.75;;
39524;SDS011;25203;50.754;6.978;2023-09-30T01:37:26;18.13;;;7.78;;
39524;SDS011;25203;50.754;6.978;2023-09-30T01:39:28;14.65;;;8.10;;
39524;SDS011;25203;50.754;6.978;2023-09-30T01:41:30;15.43;;;7.40;;
39524;SDS011;25203;50.754;6.978;2023-09-30T01:43:30;16.88;;;7.65;;
39524;SDS011;25203;50.754;6.978;2023-09-30T01:45:31;16.60;;;7.40;;
39524;SDS011;25203;50.754;6.978;2023-09-30T01:47:31;9.77;;;6.72;;
39524;SDS011;25203;50.754;6.978;2023-09-30T01:49:32;24.60;;;9.20;;
39524;SDS011;25203;50.754;6.978;2023-09-30T01:51:33;17.10;;;7.90;;
39524;SDS011;25203;50.754;6.978;2023-09-30T01:53:33;16.75;;;7.40;;
39524;SDS011;25203;50.754;6.978;2023-09-30T01:55:34;14.88;;;7.40;;
39524;SDS011;25203;50.754;6.978;2023-09-30T01:57:36;14.27;;;9.75;;
39524;SDS011;25203;50.754;6.978;2023-09-30T01:59:37;21.95;;;9.73;;
39524;SDS011;25203;50.754;6.978;2023-09-30T02:01:37;18.08;;;9.13;;
39524;SDS011;25203;50.754;6.978;2023-09-30T02:03:38;19.08;;;8.95;;
39524;SDS011;25203;50.754;6.978;2023-09-30T02:05:39;17.73;;;7.75;;
39524;SDS011;25203;50.754;6.978;2023-09-30T02:07:39;16.58;;;8.30;;
39524;SDS011;25203;50.754;6.978;2023-09-30T02:09:40;19.08;;;8.95;;
39524;SDS011;25203;50.754;6.978;2023-09-30T02:11:41;14.27;;;8.35;;
39524;SDS011;25203;50.754;6.978;2023-09-30T02:13:42;18.85;;;8.65;;
39524;SDS011;25203;50.754;6.978;2023-09-30T02:15:44;14.75;;;8.98;;
39524;SDS011;25203;50.754;6.978;2023-09-30T02:17:45;14.48;;;8.52;;
39524;SDS011;25203;50.754;6.978;2023-09-30T02:19:48;16.15;;;8.02;;
39524;SDS011;25203;50.754;6.978;2023-09-30T02:21:49;17.00;;;7.93;;
39524;SDS011;25203;50.754;6.978;2023-09-30T02:23:50;24.02;;;10.73;;
39524;SDS011;25203;50.754;6.978;2023-09-30T02:25:54;20.02;;;10.43;;
39524;SDS011;25203;50.754;6.978;2023-09-30T02:27:55;20.38;;;9.77;;
39524;SDS011;25203;50.754;6.978;2023-09-30T02:29:57;17.73;;;9.98;;
39524;SDS011;25203;50.754;6.978;2023-09-30T02:31:58;25.38;;;9.02;;
39524;SDS011;25203;50.754;6.978;2023-09-30T02:33:58;17.20;;;9.07;;
39524;SDS011;25203;50.754;6.978;2023-09-30T02:35:59;21.48;;;9.73;;
39524;SDS011;25203;50.754;6.978;2023-09-30T02:37:59;21.17;;;10.07;;
39524;SDS011;25203;50.754;6.978;2023-09-30T02:40:01;24.48;;;10.65;;
39524;SDS011;25203;50.754;6.978;2023-09-30T02:42:06;16.85;;;9.23;;
39524;SDS011;25203;50.754;6.978;2023-09-30T02:44:06;19.20;;;10.00;;
39524;SDS011;25203;50.754;6.978;2023-09-30T02:46:07;15.18;;;8.40;;
39524;SDS011;25203;50.754;6.978;2023-09-30T02:48:08;14.88;;;8.57;;
39524;SDS011;25203;50.754;6.978;2023-09-30T02:50:09;31.92;;;10.95;;
39524;SDS011;25203;50.754;6.978;2023-09-30T02:52:16;25.17;;;10.35;;
39524;SDS011;25203;50.754;6.978;2023-09-30T02:54:17;18.50;;;8.93;;
39524;SDS011;25203;50.754;6.978;2023-09-30T02:56:17;17.48;;;8.55;;
39524;SDS011;25203;50.754;6.978;2023-09-30T02:58:19;14.95;;;7.25;;
39524;SDS011;25203;50.754;6.978;2023-09-30T03:00:21;12.60;;;7.40;;
39524;SDS011;25203;50.754;6.978;2023-09-30T03:02:25;15.43;;;7.15;;
39524;SDS011;25203;50.754;6.978;2023-09-30T03:04:26;15.43;;;7.97;;
39524;SDS011;25203;50.754;6.978;2023-09-30T03:06:28;13.85;;;7.97;;
39524;SDS011;25203;50.754;6.978;2023-09-30T03:08:28;12.43;;;7.90;;
39524;SDS011;25203;50.754;6.978;2023-09-30T03:10:30;15.07;;;9.25;;
39524;SDS011;25203;50.754;6.978;2023-09-30T03:12:31;14.23;;;8.60;;
39524;SDS011;25203;50.754;6.978;2023-09-30T03:14:31;15.63;;;8.70;;
39524;SDS011;25203;50.754;6.978;2023-09-30T03:16:32;15.18;;;9.20;;
39524;SDS011;25203;50.754;6.978;2023-09-30T03:18:33;17.88;;;9.05;;
39524;SDS011;25203;50.754;6.978;2023-09-30T03:20:34;15.65;;;8.40;;
39524;SDS011;25203;50.754;6.978;2023-09-30T03:22:36;12.40;;;8.18;;
39524;SDS011;25203;50.754;6.978;2023-09-30T03:24:38;15.13;;;8.98;;
39524;SDS011;25203;50.754;6.978;2023-09-30T03:26:39;28.00;;;9.32;;
39524;SDS011;25203;50.754;6.978;2023-09-30T03:28:41;16.50;;;8.25;;
39524;SDS011;25203;50.754;6.978;2023-09-30T03:30:42;13.85;;;7.88;;
39524;SDS011;25203;50.754;6.978;2023-09-30T03:32:43;13.35;;;7.32;;
39524;SDS011;25203;50.754;6.978;2023-09-30T03:34:44;13.57;;;8.27;;
39524;SDS011;25203;50.754;6.978;2023-09-30T03:36:46;14.15;;;8.30;;
39524;SDS011;25203;50.754;6.978;2023-09-30T03:38:46;15.05;;;8.02;;
39524;SDS011;25203;50.754;6.978;2023-09-30T03:40:47;14.80;;;7.95;;
39524;SDS011;25203;50.754;6.978;2023-09-30T03:42:48;11.60;;;7.53;;
39524;SDS011;25203;50.754;6.978;2023-09-30T03:44:51;13.95;;;6.85;;
39524;SDS011;25203;50.754;6.978;2023-09-30T03:46:52;12.73;;;6.75;;
39524;SDS011;25203;50.754;6.978;2023-09-30T03:48:53;12.48;;;6.65;;
39524;SDS011;25203;50.754;6.978;2023-09-30T03:50:53;13.43;;;6.85;;
39524;SDS011;25203;50.754;6.978;2023-09-30T03:53:00;13.10;;;6.53;;
39524;SDS011;25203;50.754;6.978;2023-09-30T03:55:01;9.88;;;6.32;;
39524;SDS011;25203;50.754;6.978;2023-09-30T03:57:05;12.15;;;6.82;;
39524;SDS011;25203;50.754;6.978;2023-09-30T03:59:06;9.60;;;5.47;;
39524;SDS011;25203;50.754;6.978;2023-09-30T04:01:07;12.43;;;5.22;;
39524;SDS011;25203;50.754;6.978;2023-09-30T04:03:11;9.15;;;4.95;;
39524;SDS011;25203;50.754;6.978;2023-09-30T04:05:11;11.23;;;5.53;;
39524;SDS011;25203;50.754;6.978;2023-09-30T04:07:14;12.90;;;6.13;;
39524;SDS011;25203;50.754;6.978;2023-09-30T04:09:14;9.25;;;5.07;;
39524;SDS011;25203;50.754;6.978;2023-09-30T04:11:16;15.15;;;6.65;;
39524;SDS011;25203;50.754;6.978;2023-09-30T04:13:18;11.63;;;6.32;;
39524;SDS011;25203;50.754;6.978;2023-09-30T04:15:20;11.65;;;6.68;;
39524;SDS011;25203;50.754;6.978;2023-09-30T04:17:22;13.90;;;6.45;;
39524;SDS011;25203;50.754;6.978;2023-09-30T04:19:23;16.50;;;7.50;;
39524;SDS011;25203;50.754;6.978;2023-09-30T04:21:23;15.75;;;6.07;;
39524;SDS011;25203;50.754;6.978;2023-09-30T04:23:24;15.10;;;6.15;;
39524;SDS011;25203;50.754;6.978;2023-09-30T04:25:25;16.30;;;6.43;;
39524;SDS011;25203;50.754;6.978;2023-09-30T04:27:26;21.23;;;7.13;;
39524;SDS011;25203;50.754;6.978;2023-09-30T04:29:27;19.02;;;7.82;;
39524;SDS011;25203;50.754;6.978;2023-09-30T04:31:28;15.88;;;7.95;;
39524;SDS011;25203;50.754;6.978;2023-09-30T04:33:29;19.73;;;7.78;;
39524;SDS011;25203;50.754;6.978;2023-09-30T04:35:29;19.85;;;9.25;;
39524;SDS011;25203;50.754;6.978;2023-09-30T04:37:30;17.33;;;8.27;;
39524;SDS011;25203;50.754;6.978;2023-09-30T04:39:31;16.83;;;8.40;;
39524;SDS011;25203;50.754;6.978;2023-09-30T04:41:35;13.13;;;7.55;;
39524;SDS011;25203;50.754;6.978;2023-09-30T04:43:36;16.77;;;9.13;;
39524;SDS011;25203;50.754;6.978;2023-09-30T04:45:39;19.58;;;9.32;;
39524;SDS011;25203;50.754;6.978;2023-09-30T04:47:40;18.27;;;8.18;;
39524;SDS011;25203;50.754;6.978;2023-09-30T04:49:41;14.73;;;7.82;;
39524;SDS011;25203;50.754;6.978;2023-09-30T04:51:43;15.10;;;8.55;;
39524;SDS011;25203;50.754;6.978;2023-09-30T04:53:44;16.92;;;9.48;;
39524;SDS011;25203;50.754;6.978;2023-09-30T04:55:46;21.95;;;9.60;;
39524;SDS011;25203;50.754;6.978;2023-09-30T04:57:50;18.75;;;9.60;;
39524;SDS011;25203;50.754;6.978;2023-09-30T04:59:51;18.65;;;8.90;;
39524;SDS011;25203;50.754;6.978;2023-09-30T05:01:51;17.20;;;9.45;;
39524;SDS011;25203;50.754;6.978;2023-09-30T05:03:53;18.48;;;8.75;;
39524;SDS011;25203;50.754;6.978;2023-09-30T05:05:54;18.48;;;9.65;;
39524;SDS011;25203;50.754;6.978;2023-09-30T05:07:58;24.70;;;10.80;;
39524;SDS011;25203;50.754;6.978;2023-09-30T05:09:58;25.10;;;10.95;;
39524;SDS011;25203;50.754;6.978;2023-09-30T05:12:05;23.13;;;10.43;;
39524;SDS011;25203;50.754;6.978;2023-09-30T05:14:06;20.27;;;11.02;;
39524;SDS011;25203;50.754;6.978;2023-09-30T05:16:06;22.63;;;11.90;;
39524;SDS011;25203;50.754;6.978;2023-09-30T05:18:07;22.92;;;11.35;;
39524;SDS011;25203;50.754;6.978;2023-09-30T05:20:11;28.00;;;13.00;;
39524;SDS011;25203;50.754;6.978;2023-09-30T05:22:12;18.20;;;9.05;;
39524;SDS011;25203;50.754;6.978;2023-09-30T05:24:13;20.40;;;8.73;;
39524;SDS011;25203;50.754;6.978;2023-09-30T05:26:13;16.40;;;8.23;;
39524;SDS011;25203;50.754;6.978;2023-09-30T05:28:14;18.10;;;8.93;;
39524;SDS011;25203;50.754;6.978;2023-09-30T05:30:15;21.33;;;8.50;;
39524;SDS011;25203;50.754;6.978;2023-09-30T05:32:16;27.67;;;12.18;;
39524;SDS011;25203;50.754;6.978;2023-09-30T05:34:18;24.75;;;10.35;;
39524;SDS011;25203;50.754;6.978;2023-09-30T05:36:19;24.02;;;13.00;;
39524;SDS011;25203;50.754;6.978;2023-09-30T05:38:20;26.75;;;11.82;;
39524;SDS011;25203;50.754;6.978;2023-09-30T05:40:23;19.60;;;10.50;;
39524;SDS011;25203;50.754;6.978;2023-09-30T05:42:25;23.00;;;10.95;;
39524;SDS011;25203;50.754;6.978;2023-09-30T05:44:26;19.98;;;10.93;;
39524;SDS011;25203;50.754;6.978;2023-09-30T05:46:27;19.45;;;10.23;;
39524;SDS011;25203;50.754;6.978;2023-09-30T05:48:28;23.85;;;10.10;;
39524;SDS011;25203;50.754;6.978;2023-09-30T05:50:28;18.48;;;10.32;;
39524;SDS011;25203;50.754;6.978;2023-09-30T05:52:29;25.52;;;10.02;;
39524;SDS011;25203;50.754;6.978;2023-09-30T05:54:29;20.30;;;10.45;;
39524;SDS011;25203;50.754;6.978;2023-09-30T05:56:30;21.08;;;10.23;;
39524;SDS011;25203;50.754;6.978;2023-09-30T05:58:31;18.48;;;8.88;;
39524;SDS011;25203;50.754;6.978;2023-09-30T06:00:32;18.50;;;8.00;;
39524;SDS011;25203;50.754;6.978;2023-09-30T06:02:35;19.48;;;9.65;;
39524;SDS011;25203;50.754;6.978;2023-09-30T06:04:35;22.20;;;8.23;;
39524;SDS011;25203;50.754;6.978;2023-09-30T06:06:36;15.15;;;8.05;;
39524;SDS011;25203;50.754;6.978;2023-09-30T06:08:36;14.35;;;7.55;;
39524;SDS011;25203;50.754;6.978;2023-09-30T06:10:37;15.50;;;7.07;;
39524;SDS011;25203;50.754;6.978;2023-09-30T06:12:42;10.05;;;5.72;;
39524;SDS011;25203;50.754;6.978;2023-09-30T06:14:43;15.32;;;6.70;;
39524;SDS011;25203;50.754;6.978;2023-09-30T06:16:44;11.95;;;6.13;;
39524;SDS011;25203;50.754;6.978;2023-09-30T06:18:45;10.02;;;5.57;;
39524;SDS011;25203;50.754;6.978;2023-09-30T06:20:46;11.88;;;5.75;;
39524;SDS011;25203;50.754;6.978;2023-09-30T06:22:46;13.50;;;5.68;;
39524;SDS011;25203;50.754;6.978;2023-09-30T06:24:49;19.23;;;6.78;;
39524;SDS011;25203;50.754;6.978;2023-09-30T06:26:49;15.95;;;6.30;;
39524;SDS011;25203;50.754;6.978;2023-09-30T06:28:51;14.32;;;5.90;;
39524;SDS011;25203;50.754;6.978;2023-09-30T06:30:54;11.93;;;6.15;;
39524;SDS011;25203;50.754;6.978;2023-09-30T06:32:56;12.93;;;6.00;;
39524;SDS011;25203;50.754;6.978;2023-09-30T06:34:57;12.35;;;5.40;;
39524;SDS011;25203;50.754;6.978;2023-09-30T06:36:58;10.73;;;5.20;;
39524;SDS011;25203;50.754;6.978;2023-09-30T06:38:58;12.85;;;4.75;;
39524;SDS011;25203;50.754;6.978;2023-09-30T06:40:59;14.80;;;5.85;;
39524;SDS011;25203;50.754;6.978;2023-09-30T06:43:01;12.00;;;5.70;;
39524;SDS011;25203;50.754;6.978;2023-09-30T06:45:03;13.77;;;5.40;;
39524;SDS011;25203;50.754;6.978;2023-09-30T06:47:07;16.95;;;6.25;;
39524;SDS011;25203;50.754;6.978;2023-09-30T06:49:12;16.80;;;5.55;;
39524;SDS011;25203;50.754;6.978;2023-09-30T06:51:13;8.85;;;4.60;;
39524;SDS011;25203;50.754;6.978;2023-09-30T06:53:17;18.83;;;5.63;;
39524;SDS011;25203;50.754;6.978;2023-09-30T06:55:19;13.07;;;5.03;;
39524;SDS011;25203;50.754;6.978;2023-09-30T06:57:19;13.63;;;5.18;;
39524;SDS011;25203;50.754;6.978;2023-09-30T06:59:20;13.48;;;5.35;;
39524;SDS011;25203;50.754;6.978;2023-09-30T07:01:20;11.23;;;5.93;;
39524;SDS011;25203;50.754;6.978;2023-09-30T07:03:21;11.00;;;5.15;;
39524;SDS011;25203;50.754;6.978;2023-09-30T07:05:22;11.13;;;4.72;;
39524;SDS011;25203;50.754;6.978;2023-09-30T07:07:22;14.43;;;5.80;;
39524;SDS011;25203;50.754;6.978;2023-09-30T07:09:23;15.20;;;4.93;;
39524;SDS011;25203;50.754;6.978;2023-09-30T07:11:30;10.30;;;4.90;;
39524;SDS011;25203;50.754;6.978;2023-09-30T07:13:33;13.93;;;4.85;;
39524;SDS011;25203;50.754;6.978;2023-09-30T07:15:34;11.20;;;4.60;;
39524;SDS011;25203;50.754;6.978;2023-09-30T07:17:35;10.73;;;4.50;;
39524;SDS011;25203;50.754;6.978;2023-09-30T07:19:36;10.13;;;5.30;;
39524;SDS011;25203;50.754;6.978;2023-09-30T07:21:36;13.15;;;5.25;;
39524;SDS011;25203;50.754;6.978;2023-09-30T07:23:37;15.25;;;4.35;;
39524;SDS011;25203;50.754;6.978;2023-09-30T07:25:38;9.00;;;3.45;;
39524;SDS011;25203;50.754;6.978;2023-09-30T07:27:38;10.02;;;3.17;;
39524;SDS011;25203;50.754;6.978;2023-09-30T07:29:39;9.93;;;3.35;;
39524;SDS011;25203;50.754;6.978;2023-09-30T07:31:40;5.90;;;2.50;;
39524;SDS011;25203;50.754;6.978;2023-09-30T07:33:40;7.80;;;2.70;;
39524;SDS011;25203;50.754;6.978;2023-09-30T07:35:41;7.38;;;3.30;;
39524;SDS011;25203;50.754;6.978;2023-09-30T07:37:42;9.45;;;3.13;;
39524;SDS011;25203;50.754;6.978;2023-09-30T07:39:43;6.95;;;2.80;;
39524;SDS011;25203;50.754;6.978;2023-09-30T07:41:44;7.93;;;3.05;;
39524;SDS011;25203;50.754;6.978;2023-09-30T07:43:44;5.35;;;2.60;;
39524;SDS011;25203;50.754;6.978;2023-09-30T07:45:45;8.52;;;2.80;;
39524;SDS011;25203;50.754;6.978;2023-09-30T07:47:45;7.15;;;3.03;;
39524;SDS011;25203;50.754;6.978;2023-09-30T07:49:46;6.07;;;2.60;;
39524;SDS011;25203;50.754;6.978;2023-09-30T07:51:47;5.22;;;2.63;;
39524;SDS011;25203;50.754;6.978;2023-09-30T07:53:47;10.43;;;3.03;;
39524;SDS011;25203;50.754;6.978;2023-09-30T07:55:48;7.15;;;3.28;;
39524;SDS011;25203;50.754;6.978;2023-09-30T07:57:48;5.00;;;2.63;;
39524;SDS011;25203;50.754;6.978;2023-09-30T07:59:49;7.40;;;3.25;;
39524;SDS011;25203;50.754;6.978;2023-09-30T08:01:50;6.63;;;3.00;;
39524;SDS011;25203;50.754;6.978;2023-09-30T08:03:51;5.95;;;2.83;;
39524;SDS011;25203;50.754;6.978;2023-09-30T08:05:52;6.45;;;2.80;;
39524;SDS011;25203;50.754;6.978;2023-09-30T08:07:53;7.95;;;2.88;;
39524;SDS011;25203;50.754;6.978;2023-09-30T08:09:54;6.32;;;2.72;;
39524;SDS011;25203;50.754;6.978;2023-09-30T08:11:54;8.65;;;3.70;;
39524;SDS011;25203;50.754;6.978;2023-09-30T08:13:56;4.95;;;2.50;;
39524;SDS011;25203;50.754;6.978;2023-09-30T08:15:59;6.45;;;3.53;;
39524;SDS011;25203;50.754;6.978;2023-09-30T08:17:59;5.70;;;2.90;;
39524;SDS011;25203;50.754;6.978;2023-09-30T08:20:02;6.68;;;2.83;;
39524;SDS011;25203;50.754;6.978;2023-09-30T08:22:04;6.28;;;2.78;;
39524;SDS011;25203;50.754;6.978;2023-09-30T08:24:05;7.47;;;3.10;;
39524;SDS011;25203;50.754;6.978;2023-09-30T08:26:06;5.50;;;3.05;;
39524;SDS011;25203;50.754;6.978;2023-09-30T08:28:06;6.90;;;3.30;;
39524;SDS011;25203;50.754;6.978;2023-09-30T08:30:09;8.65;;;3.35;;
39524;SDS011;25203;50.754;6.978;2023-09-30T08:32:10;6.80;;;3.17;;
39524;SDS011;25203;50.754;6.978;2023-09-30T08:34:10;6.00;;;2.90;;
39524;SDS011;25203;50.754;6.978;2023-09-30T08:36:11;5.65;;;2.70;;
39524;SDS011;25203;50.754;6.978;2023-09-30T08:38:12;8.13;;;3.40;;
39524;SDS011;25203;50.754;6.978;2023-09-30T08:40:12;6.35;;;3.22;;
39524;SDS011;25203;50.754;6.978;2023-09-30T08:42:13;5.70;;;3.25;;
39524;SDS011;25203;50.754;6.978;2023-09-30T08:44:14;8.07;;;3.28;;
39524;SDS011;25203;50.754;6.978;2023-09-30T08:46:14;6.63;;;3.45;;
39524;SDS011;25203;50.754;6.978;2023-09-30T08:48:17;8.65;;;4.15;;
39524;SDS011;25203;50.754;6.978;2023-09-30T08:50:18;7.63;;;3.80;;
39524;SDS011;25203;50.754;6.978;2023-09-30T08:52:20;7.78;;;4.10;;
39524;SDS011;25203;50.754;6.978;2023-09-30T08:54:22;9.60;;;4.20;;
39524;SDS011;25203;50.754;6.978;2023-09-30T08:56:24;9.75;;;4.35;;
39524;SDS011;25203;50.754;6.978;2023-09-30T08:58:28;7.72;;;3.53;;
39524;SDS011;25203;50.754;6.978;2023-09-30T09:00:29;11.93;;;4.85;;
39524;SDS011;25203;50.754;6.978;2023-09-30T09:02:29;6.07;;;3.75;;
39524;SDS011;25203;50.754;6.978;2023-09-30T09:04:30;8.88;;;4.68;;
39524;SDS011;25203;50.754;6.978;2023-09-30T09:06:31;8.27;;;4.57;;
39524;SDS011;25203;50.754;6.978;2023-09-30T09:08:32;7.63;;;4.13;;
39524;SDS011;25203;50.754;6.978;2023-09-30T09:10:33;8.27;;;3.55;;
39524;SDS011;25203;50.754;6.978;2023-09-30T09:12:34;7.78;;;4.68;;
39524;SDS011;25203;50.754;6.978;2023-09-30T09:14:40;7.13;;;4.25;;
39524;SDS011;25203;50.754;6.978;2023-09-30T09:16:50;5.47;;;3.42;;
39524;SDS011;25203;50.754;6.978;2023-09-30T09:18:52;4.95;;;3.17;;
39524;SDS011;25203;50.754;6.978;2023-09-30T09:20:55;7.03;;;3.40;;
39524;SDS011;25203;50.754;6.978;2023-09-30T09:23:08;7.00;;;3.63;;
39524;SDS011;25203;50.754;6.978;2023-09-30T09:25:09;5.22;;;3.28;;
39524;SDS011;25203;50.754;6.978;2023-09-30T09:27:11;4.65;;;3.03;;
39524;SDS011;25203;50.754;6.978;2023-09-30T09:29:13;4.63;;;2.95;;
39524;SDS011;25203;50.754;6.978;2023-09-30T09:31:21;9.93;;;3.65;;
39524;SDS011;25203;50.754;6.978;2023-09-30T09:33:23;6.72;;;3.45;;
39524;SDS011;25203;50.754;6.978;2023-09-30T09:35:37;5.03;;;2.50;;
39524;SDS011;25203;50.754;6.978;2023-09-30T09:37:37;7.10;;;2.85;;
39524;SDS011;25203;50.754;6.978;2023-09-30T09:39:38;6.07;;;3.10;;
39524;SDS011;25203;50.754;6.978;2023-09-30T09:41:54;4.70;;;3.13;;
39524;SDS011;25203;50.754;6.978;2023-09-30T09:43:58;6.30;;;3.75;;
39524;SDS011;25203;50.754;6.978;2023-09-30T09:45:59;6.10;;;4.05;;
39524;SDS011;25203;50.754;6.978;2023-09-30T09:48:04;6.03;;;3.38;;
39524;SDS011;25203;50.754;6.978;2023-09-30T09:50:05;5.70;;;3.50;;
39524;SDS011;25203;50.754;6.978;2023-09-30T09:52:06;5.40;;;3.60;;
39524;SDS011;25203;50.754;6.978;2023-09-30T09:54:07;5.30;;;3.20;;
39524;SDS011;25203;50.754;6.978;2023-09-30T09:56:08;4.65;;;3.17;;
39524;SDS011;25203;50.754;6.978;2023-09-30T09:58:12;5.82;;;3.38;;
39524;SDS011;25203;50.754;6.978;2023-09-30T10:00:21;5.45;;;3.05;;
39524;SDS011;25203;50.754;6.978;2023-09-30T10:02:23;3.63;;;2.92;;
39524;SDS011;25203;50.754;6.978;2023-09-30T10:04:25;3.90;;;2.78;;
39524;SDS011;25203;50.754;6.978;2023-09-30T10:06:26;3.95;;;2.55;;
39524;SDS011;25203;50.754;6.978;2023-09-30T10:08:37;4.53;;;3.00;;
39524;SDS011;25203;50.754;6.978;2023-09-30T10:10:41;4.15;;;2.70;;
39524;SDS011;25203;50.754;6.978;2023-09-30T10:12:43;4.38;;;2.92;;
39524;SDS011;25203;50.754;6.978;2023-09-30T10:14:44;4.55;;;3.15;;
39524;SDS011;25203;50.754;6.978;2023-09-30T10:19:06;4.75;;;3.17;;
39524;SDS011;25203;50.754;6.978;2023-09-30T10:21:10;4.85;;;3.17;;
39524;SDS011;25203;50.754;6.978;2023-09-30T10:23:25;6.75;;;4.03;;
39524;SDS011;25203;50.754;6.978;2023-09-30T10:25:36;6.85;;;3.63;;
39524;SDS011;25203;50.754;6.978;2023-09-30T10:27:37;4.13;;;3.08;;
39524;SDS011;25203;50.754;6.978;2023-09-30T10:29:40;4.45;;;2.67;;
39524;SDS011;25203;50.754;6.978;2023-09-30T10:31:51;6.22;;;3.10;;
39524;SDS011;25203;50.754;6.978;2023-09-30T10:36:01;4.47;;;2.63;;
39524;SDS011;25203;50.754;6.978;2023-09-30T10:40:29;5.70;;;2.88;;
39524;SDS011;25203;50.754;6.978;2023-09-30T10:42:47;9.05;;;3.20;;
39524;SDS011;25203;50.754;6.978;2023-09-30T10:44:49;7.57;;;3.20;;
39524;SDS011;25203;50.754;6.978;2023-09-30T10:46:51;5.18;;;2.45;;
39524;SDS011;25203;50.754;6.978;2023-09-30T10:48:55;4.53;;;2.55;;
39524;SDS011;25203;50.754;6.978;2023-09-30T10:50:58;6.10;;;2.45;;
39524;SDS011;25203;50.754;6.978;2023-09-30T10:53:03;6.43;;;2.72;;
39524;SDS011;25203;50.754;6.978;2023-09-30T10:55:05;4.65;;;2.28;;
39524;SDS011;25203;50.754;6.978;2023-09-30T10:57:09;7.82;;;2.63;;
39524;SDS011;25203;50.754;6.978;2023-09-30T10:59:10;4.45;;;2.47;;
39524;SDS011;25203;50.754;6.978;2023-09-30T11:01:21;5.18;;;2.83;;
39524;SDS011;25203;50.754;6.978;2023-09-30T11:03:23;6.57;;;2.40;;
39524;SDS011;25203;50.754;6.978;2023-09-30T11:05:23;4.10;;;2.58;;
39524;SDS011;25203;50.754;6.978;2023-09-30T11:07:24;3.08;;;2.22;;
39524;SDS011;25203;50.754;6.978;2023-09-30T11:09:28;6.18;;;2.33;;
39524;SDS011;25203;50.754;6.978;2023-09-30T11:11:35;5.50;;;2.60;;
39524;SDS011;25203;50.754;6.978;2023-09-30T11:13:40;8.25;;;2.75;;
39524;SDS011;25203;50.754;6.978;2023-09-30T11:15:40;7.25;;;2.95;;
39524;SDS011;25203;50.754;6.978;2023-09-30T11:17:41;5.25;;;2.50;;
39524;SDS011;25203;50.754;6.978;2023-09-30T11:19:48;5.85;;;2.70;;
39524;SDS011;25203;50.754;6.978;2023-09-30T11:23:50;4.50;;;3.15;;
39524;SDS011;25203;50.754;6.978;2023-09-30T11:25:53;6.13;;;3.17;;
39524;SDS011;25203;50.754;6.978;2023-09-30T11:28:07;7.93;;;3.28;;
39524;SDS011;25203;50.754;6.978;2023-09-30T11:30:13;4.93;;;3.13;;
39524;SDS011;25203;50.754;6.978;2023-09-30T11:32:27;4.90;;;2.63;;
39524;SDS011;25203;50.754;6.978;2023-09-30T11:34:33;8.80;;;2.92;;
39524;SDS011;25203;50.754;6.978;2023-09-30T11:36:35;7.38;;;3.35;;
39524;SDS011;25203;50.754;6.978;2023-09-30T11:38:36;7.38;;;3.05;;
39524;SDS011;25203;50.754;6.978;2023-09-30T11:40:37;8.68;;;3.58;;
39524;SDS011;25203;50.754;6.978;2023-09-30T11:42:37;5.18;;;2.85;;
39524;SDS011;25203;50.754;6.978;2023-09-30T11:44:44;8.85;;;3.60;;
39524;SDS011;25203;50.754;6.978;2023-09-30T11:46:56;7.72;;;3.58;;
39524;SDS011;25203;50.754;6.978;2023-09-30T11:49:01;7.50;;;3.08;;
39524;SDS011;25203;50.754;6.978;2023-09-30T11:51:08;7.32;;;2.72;;
39524;SDS011;25203;50.754;6.978;2023-09-30T11:53:15;4.22;;;2.53;;
39524;SDS011;25203;50.754;6.978;2023-09-30T11:55:16;6.80;;;2.40;;
39524;SDS011;25203;50.754;6.978;2023-09-30T11:57:19;6.57;;;2.65;;
39524;SDS011;25203;50.754;6.978;2023-09-30T11:59:20;3.45;;;2.10;;
39524;SDS011;25203;50.754;6.978;2023-09-30T12:01:22;9.68;;;2.97;;
39524;SDS011;25203;50.754;6.978;2023-09-30T12:03:25;5.88;;;2.38;;
39524;SDS011;25203;50.754;6.978;2023-09-30T12:05:27;5.03;;;2.40;;
39524;SDS011;25203;50.754;6.978;2023-09-30T12:07:29;5.25;;;2.90;;
39524;SDS011;25203;50.754;6.978;2023-09-30T12:09:29;6.22;;;2.50;;
39524;SDS011;25203;50.754;6.978;2023-09-30T12:11:31;4.35;;;2.55;;
39524;SDS011;25203;50.754;6.978;2023-09-30T12:13:32;4.43;;;2.13;;
39524;SDS011;25203;50.754;6.978;2023-09-30T12:15:32;4.20;;;2.00;;